• Join FlightAware (Why Join?)
  • Login
  • US Flag 
01:15AM EDT


 

Airport Tracker/Info


-or-


 

Live Flight TrackerFlight Track Log ✈ A7-BBG ✈ 02-May-2012 ✈ OTBD / DOH - FAJS

Flight Track Log - Related Links

Times and Time Zones

All times are in EDT time to prevent confusion due to time zone crossing. See the A7-BBG flight status page for this flight to view local times or setup timezone preferences in your user account.

Time Position Orientation Groundspeed Altitude Reporting Facility
EDT Latitude Longitude Course Direction KTS MPH feet Rate Location/Type
07:16PM 24.1251 50.9761 205° Southwest  Level Estimated
07:17PM 24.0142 50.9192 205° Southwest  Level Estimated
07:18PM 23.9032 50.8624 205° Southwest  Level Estimated
07:19PM 23.7922 50.8057 205° Southwest  Level Estimated
07:20PM 23.6812 50.7491 205° Southwest  Level Estimated
07:21PM 23.5701 50.6926 205° Southwest  Level Estimated
07:22PM 23.4591 50.6362 205° Southwest  Level Estimated
07:23PM 23.3480 50.5799 205° Southwest  Level Estimated
07:24PM 23.2369 50.5237 205° Southwest  Level Estimated
07:25PM 23.1258 50.4675 205° Southwest  Level Estimated
07:26PM 23.0146 50.4115 205° Southwest  Level Estimated
07:27PM 22.9035 50.3556 205° Southwest  Level Estimated
07:28PM 22.7923 50.2997 205° Southwest  Level Estimated
07:29PM 22.6811 50.2440 205° Southwest  Level Estimated
07:30PM 22.5699 50.1883 205° Southwest  Level Estimated
07:31PM 22.4586 50.1327 205° Southwest  Level Estimated
07:32PM 22.3474 50.0772 205° Southwest  Level Estimated
07:33PM 22.2361 50.0218 205° Southwest  Level Estimated
07:34PM 22.1248 49.9665 205° Southwest  Level Estimated
07:35PM 22.0135 49.9113 205° Southwest  Level Estimated
07:36PM 21.9022 49.8561 205° Southwest  Level Estimated
07:37PM 21.7908 49.8011 205° Southwest  Level Estimated
07:38PM 21.6795 49.7461 205° Southwest  Level Estimated
07:39PM 21.5681 49.6912 205° Southwest  Level Estimated
07:40PM 21.4567 49.6364 205° Southwest  Level Estimated
07:41PM 21.3453 49.5817 205° Southwest  Level Estimated
07:42PM 21.2338 49.5271 205° Southwest  Level Estimated
07:43PM 21.1224 49.4725 205° Southwest  Level Estimated
07:44PM 21.0109 49.4181 205° Southwest  Level Estimated
07:45PM 20.8994 49.3637 204° Southwest  Level Estimated
07:46PM 20.7879 49.3094 204° Southwest  Level Estimated
07:47PM 20.6764 49.2551 204° Southwest  Level Estimated
07:48PM 20.5649 49.2010 204° Southwest  Level Estimated
07:49PM 20.4533 49.1469 204° Southwest  Level Estimated
07:50PM 20.3417 49.0929 204° Southwest  Level Estimated
07:51PM 20.2301 49.0390 204° Southwest  Level Estimated
07:52PM 20.1185 48.9852 204° Southwest  Level Estimated
07:53PM 20.0069 48.9314 204° Southwest  Level Estimated
07:54PM 19.8953 48.8778 204° Southwest  Level Estimated
07:55PM 19.7836 48.8242 204° Southwest  Level Estimated
07:56PM 19.6720 48.7706 204° Southwest  Level Estimated
07:57PM 19.5603 48.7172 204° Southwest  Level Estimated
07:58PM 19.4486 48.6638 204° Southwest  Level Estimated
07:59PM 19.3368 48.6105 204° Southwest  Level Estimated
08:00PM 19.2251 48.5573 204° Southwest  Level Estimated
08:01PM 19.1134 48.5041 204° Southwest  Level Estimated
08:02PM 19.0016 48.4510 204° Southwest  Level Estimated
08:03PM 18.8898 48.3980 204° Southwest  Level Estimated
08:04PM 18.7780 48.3450 204° Southwest  Level Estimated
08:05PM 18.6662 48.2922 204° Southwest  Level Estimated
08:06PM 18.5544 48.2393 204° Southwest  Level Estimated
08:07PM 18.4426 48.1866 204° Southwest  Level Estimated
08:08PM 18.3307 48.1339 204° Southwest  Level Estimated
08:09PM 18.2188 48.0813 204° Southwest  Level Estimated
08:10PM 18.1070 48.0288 204° Southwest  Level Estimated
08:11PM 17.9951 47.9763 204° Southwest  Level Estimated
08:12PM 17.8832 47.9239 204° Southwest  Level Estimated
08:13PM 17.7712 47.8716 204° Southwest  Level Estimated
08:14PM 17.6593 47.8193 204° Southwest  Level Estimated
08:15PM 17.5473 47.7671 204° Southwest  Level Estimated
08:16PM 17.4354 47.7150 204° Southwest  Level Estimated
08:17PM 17.3234 47.6629 204° Southwest  Level Estimated
08:18PM 17.2114 47.6109 204° Southwest  Level Estimated
08:19PM 17.0994 47.5589 204° Southwest  Level Estimated
08:20PM 16.9874 47.5071 204° Southwest  Level Estimated
08:21PM 16.8754 47.4552 204° Southwest  Level Estimated
08:22PM 16.7633 47.4035 204° Southwest  Level Estimated
08:23PM 16.6513 47.3518 204° Southwest  Level Estimated
08:24PM 16.5392 47.3001 204° Southwest  Level Estimated
08:25PM 16.4271 47.2486 204° Southwest  Level Estimated
08:26PM 16.3150 47.1970 204° Southwest  Level Estimated
08:27PM 16.2029 47.1456 204° Southwest  Level Estimated
08:28PM 16.0908 47.0942 204° Southwest  Level Estimated
08:29PM 15.9787 47.0428 204° Southwest  Level Estimated
08:30PM 15.8665 46.9915 204° Southwest  Level Estimated
08:31PM 15.7544 46.9403 204° Southwest  Level Estimated
08:32PM 15.6422 46.8891 204° Southwest  Level Estimated
08:33PM 15.5300 46.8380 204° Southwest  Level Estimated
08:34PM 15.4178 46.7869 204° Southwest  Level Estimated
08:35PM 15.3056 46.7359 204° Southwest  Level Estimated
08:36PM 15.1934 46.6850 204° Southwest  Level Estimated
08:37PM 15.0812 46.6341 204° Southwest  Level Estimated
08:38PM 14.9689 46.5832 204° Southwest  Level Estimated
08:39PM 14.8567 46.5324 204° Southwest  Level Estimated
08:40PM 14.7444 46.4817 204° Southwest  Level Estimated
08:41PM 14.6321 46.4310 204° Southwest  Level Estimated
08:42PM 14.5199 46.3804 204° Southwest  Level Estimated
08:43PM 14.4076 46.3298 204° Southwest  Level Estimated
08:44PM 14.2953 46.2792 204° Southwest  Level Estimated
08:45PM 14.1830 46.2287 204° Southwest  Level Estimated
08:46PM 14.0706 46.1783 204° Southwest  Level Estimated
08:47PM 13.9583 46.1279 204° Southwest  Level Estimated
08:48PM 13.8460 46.0776 203° Southwest  Level Estimated
08:49PM 13.7336 46.0273 203° Southwest  Level Estimated
08:50PM 13.6212 45.9771 203° Southwest  Level Estimated
08:51PM 13.5088 45.9269 203° Southwest  Level Estimated
08:52PM 13.3965 45.8767 203° Southwest  Level Estimated
08:53PM 13.2840 45.8266 203° Southwest  Level Estimated
08:54PM 13.1716 45.7766 203° Southwest  Level Estimated
08:55PM 13.0592 45.7266 203° Southwest  Level Estimated
08:56PM 12.9468 45.6766 203° Southwest  Level Estimated
08:57PM 12.8343 45.6267 203° Southwest  Level Estimated
08:58PM 12.7219 45.5768 203° Southwest  Level Estimated
08:59PM 12.6095 45.5270 203° Southwest  Level Estimated
09:00PM 12.4970 45.4772 203° Southwest  Level Estimated
09:01PM 12.3845 45.4275 203° Southwest  Level Estimated
09:02PM 12.2720 45.3778 203° Southwest  Level Estimated
09:03PM 12.1596 45.3282 203° Southwest  Level Estimated
09:04PM 12.0471 45.2785 203° Southwest  Level Estimated
09:05PM 11.9346 45.2290 203° Southwest  Level Estimated
09:06PM 11.8220 45.1794 203° Southwest  Level Estimated
09:07PM 11.7095 45.1300 203° Southwest  Level Estimated
09:08PM 11.5970 45.0805 203° Southwest  Level Estimated
09:09PM 11.4844 45.0311 203° Southwest  Level Estimated
09:10PM 11.3719 44.9817 203° Southwest  Level Estimated
09:11PM 11.2593 44.9324 203° Southwest  Level Estimated
09:12PM 11.1468 44.8831 203° Southwest  Level Estimated
09:13PM 11.0342 44.8339 203° Southwest  Level Estimated
09:14PM 10.9216 44.7846 203° Southwest  Level Estimated
09:15PM 10.8090 44.7355 203° Southwest  Level Estimated
09:16PM 10.6964 44.6863 203° Southwest  Level Estimated
09:17PM 10.5838 44.6372 203° Southwest  Level Estimated
09:18PM 10.4712 44.5882 203° Southwest  Level Estimated
09:19PM 10.3586 44.5391 203° Southwest  Level Estimated
09:20PM 10.2459 44.4901 203° Southwest  Level Estimated
09:21PM 10.1333 44.4412 203° Southwest  Level Estimated
09:22PM 10.0207 44.3922 203° Southwest  Level Estimated
09:23PM 9.9080 44.3433 203° Southwest  Level Estimated
09:24PM 9.7954 44.2945 203° Southwest  Level Estimated
09:25PM 9.6827 44.2457 203° Southwest  Level Estimated
09:26PM 9.5700 44.1969 203° Southwest  Level Estimated
09:27PM 9.4573 44.1481 203° Southwest  Level Estimated
09:28PM 9.3447 44.0994 203° Southwest  Level Estimated
09:29PM 9.2320 44.0507 203° Southwest  Level Estimated
09:30PM 9.1193 44.0020 203° Southwest  Level Estimated
09:31PM 9.0066 43.9534 203° Southwest  Level Estimated
09:32PM 8.8939 43.9048 203° Southwest  Level Estimated
09:33PM 8.7811 43.8562 203° Southwest  Level Estimated
09:34PM 8.6684 43.8076 203° Southwest  Level Estimated
09:35PM 8.5557 43.7591 203° Southwest  Level Estimated
09:36PM 8.4430 43.7106 203° Southwest  Level Estimated
09:37PM 8.3302 43.6622 203° Southwest  Level Estimated
09:38PM 8.2175 43.6137 203° Southwest  Level Estimated
09:39PM 8.1047 43.5653 203° Southwest  Level Estimated
09:40PM 7.9920 43.5169 203° Southwest  Level Estimated
09:41PM 7.8792 43.4686 203° Southwest  Level Estimated
09:42PM 7.7664 43.4203 203° Southwest  Level Estimated
09:43PM 7.6536 43.3720 203° Southwest  Level Estimated
09:44PM 7.5409 43.3237 203° Southwest  Level Estimated
09:45PM 7.4281 43.2755 203° Southwest  Level Estimated
09:46PM 7.3153 43.2272 203° Southwest  Level Estimated
09:47PM 7.2025 43.1790 203° Southwest  Level Estimated
09:48PM 7.0897 43.1309 203° Southwest  Level Estimated
09:49PM 6.9769 43.0827 203° Southwest  Level Estimated
09:50PM 6.8641 43.0346 203° Southwest  Level Estimated
09:51PM 6.7512 42.9865 203° Southwest  Level Estimated
09:52PM 6.6384 42.9384 203° Southwest  Level Estimated
09:53PM 6.5256 42.8903 203° Southwest  Level Estimated
09:54PM 6.4128 42.8423 203° Southwest  Level Estimated
09:55PM 6.2999 42.7943 203° Southwest  Level Estimated
09:56PM 6.1871 42.7463 203° Southwest  Level Estimated
09:57PM 6.0743 42.6983 203° Southwest  Level Estimated
09:58PM 5.9614 42.6503 203° Southwest  Level Estimated
09:59PM 5.8485 42.6024 203° Southwest  Level Estimated
10:00PM 5.7357 42.5545 203° Southwest  Level Estimated
10:01PM 5.6228 42.5066 203° Southwest  Level Estimated
10:02PM 5.5100 42.4587 203° Southwest  Level Estimated
10:03PM 5.3971 42.4108 203° Southwest  Level Estimated
10:04PM 5.2842 42.3630 203° Southwest  Level Estimated
10:05PM 5.1714 42.3152 203° Southwest  Level Estimated
10:06PM 5.0585 42.2674 203° Southwest  Level Estimated
10:07PM 4.9456 42.2196 203° Southwest  Level Estimated
10:08PM 4.8327 42.1718 203° Southwest  Level Estimated
10:09PM 4.7198 42.1240 203° Southwest  Level Estimated
10:10PM 4.6069 42.0763 203° Southwest  Level Estimated
10:11PM 4.4940 42.0286 203° Southwest  Level Estimated
10:12PM 4.3811 41.9809 203° Southwest  Level Estimated
10:13PM 4.2682 41.9332 203° Southwest  Level Estimated
10:14PM 4.1553 41.8855 203° Southwest  Level Estimated
10:15PM 4.0424 41.8378 203° Southwest  Level Estimated
10:16PM 3.9295 41.7901 203° Southwest  Level Estimated
10:17PM 3.8166 41.7425 203° Southwest  Level Estimated
10:18PM 3.7037 41.6949 203° Southwest  Level Estimated
10:19PM 3.5908 41.6472 203° Southwest  Level Estimated
10:20PM 3.4778 41.5996 203° Southwest  Level Estimated
10:21PM 3.3649 41.5520 203° Southwest  Level Estimated
10:22PM 3.2520 41.5044 203° Southwest  Level Estimated
10:23PM 3.1391 41.4568 203° Southwest  Level Estimated
10:24PM 3.0261 41.4093 203° Southwest  Level Estimated
10:25PM 2.9132 41.3617 203° Southwest  Level Estimated
10:26PM 2.8003 41.3142 203° Southwest  Level Estimated
10:27PM 2.6874 41.2666 203° Southwest  Level Estimated
10:28PM 2.5744 41.2191 203° Southwest  Level Estimated
10:29PM 2.4615 41.1716 203° Southwest  Level Estimated
10:30PM 2.3485 41.1241 203° Southwest  Level Estimated
10:31PM 2.2356 41.0766 203° Southwest  Level Estimated
10:32PM 2.1227 41.0291 203° Southwest  Level Estimated
10:33PM 2.0097 40.9816 203° Southwest  Level Estimated
10:34PM 1.8968 40.9341 203° Southwest  Level Estimated
10:35PM 1.7838 40.8866 203° Southwest  Level Estimated
10:36PM 1.6709 40.8391 203° Southwest  Level Estimated
10:37PM 1.5579 40.7917 203° Southwest  Level Estimated
10:38PM 1.4450 40.7442 203° Southwest  Level Estimated
10:39PM 1.3320 40.6968 203° Southwest  Level Estimated
10:40PM 1.2191 40.6493 203° Southwest  Level Estimated
10:41PM 1.1061 40.6018 203° Southwest  Level Estimated
10:42PM 0.9932 40.5544 203° Southwest  Level Estimated
10:43PM 0.8802 40.5070 203° Southwest  Level Estimated
10:44PM 0.7672 40.4595 203° Southwest  Level Estimated
10:45PM 0.6543 40.4121 203° Southwest  Level Estimated
10:46PM 0.5413 40.3646 203° Southwest  Level Estimated
10:47PM 0.4284 40.3172 203° Southwest  Level Estimated
10:48PM 0.3154 40.2698 203° Southwest  Level Estimated
10:49PM 0.2024 40.2224 203° Southwest  Level Estimated
10:50PM 0.0895 40.1749 203° Southwest  Level Estimated
10:51PM -0.0235 40.1275 203° Southwest  Level Estimated
10:52PM -0.1364 40.0801 203° Southwest  Level Estimated
10:53PM -0.2494 40.0326 203° Southwest  Level Estimated
10:54PM -0.3624 39.9852 203° Southwest  Level Estimated
10:55PM -0.4753 39.9378 203° Southwest  Level Estimated
10:56PM -0.5883 39.8903 203° Southwest  Level Estimated
10:57PM -0.7012 39.8429 203° Southwest  Level Estimated
10:58PM -0.8142 39.7955 203° Southwest  Level Estimated
10:59PM -0.9272 39.7480 203° Southwest  Level Estimated
11:00PM -1.0401 39.7006 203° Southwest  Level Estimated
11:01PM -1.1531 39.6531 203° Southwest  Level Estimated
11:02PM -1.2660 39.6057 203° Southwest  Level Estimated
11:03PM -1.3790 39.5582 203° Southwest  Level Estimated
11:04PM -1.4919 39.5108 203° Southwest  Level Estimated
11:05PM -1.6049 39.4633 203° Southwest  Level Estimated
11:06PM -1.7178 39.4158 203° Southwest  Level Estimated
11:07PM -1.8308 39.3684 203° Southwest  Level Estimated
11:08PM -1.9437 39.3209 203° Southwest  Level Estimated
11:09PM -2.0567 39.2734 203° Southwest  Level Estimated
11:10PM -2.1696 39.2259 203° Southwest  Level Estimated
11:11PM -2.2826 39.1784 203° Southwest  Level Estimated
11:12PM -2.3955 39.1309 203° Southwest  Level Estimated
11:13PM -2.5084 39.0834 203° Southwest  Level Estimated
11:14PM -2.6214 39.0358 203° Southwest  Level Estimated
11:15PM -2.7343 38.9883 203° Southwest  Level Estimated
11:16PM -2.8472 38.9408 203° Southwest  Level Estimated
11:17PM -2.9602 38.8932 203° Southwest  Level Estimated
11:18PM -3.0731 38.8456 203° Southwest  Level Estimated
11:19PM -3.1860 38.7981 203° Southwest  Level Estimated
11:20PM -3.2990 38.7505 203° Southwest  Level Estimated
11:21PM -3.4119 38.7029 203° Southwest  Level Estimated
11:22PM -3.5248 38.6553 203° Southwest  Level Estimated
11:23PM -3.6377 38.6077 203° Southwest  Level Estimated
11:24PM -3.7506 38.5601 203° Southwest  Level Estimated
11:25PM -3.8635 38.5124 203° Southwest  Level Estimated
11:26PM -3.9765 38.4648 203° Southwest  Level Estimated
11:27PM -4.0894 38.4171 203° Southwest  Level Estimated
11:28PM -4.2023 38.3694 203° Southwest  Level Estimated
11:29PM -4.3152 38.3217 203° Southwest  Level Estimated
11:30PM -4.4281 38.2740 203° Southwest  Level Estimated
11:31PM -4.5410 38.2263 203° Southwest  Level Estimated
11:32PM -4.6539 38.1786 203° Southwest  Level Estimated
11:33PM -4.7668 38.1308 203° Southwest  Level Estimated
11:34PM -4.8797 38.0830 203° Southwest  Level Estimated
11:35PM -4.9925 38.0353 203° Southwest  Level Estimated
11:36PM -5.1054 37.9875 203° Southwest  Level Estimated
11:37PM -5.2183 37.9397 203° Southwest  Level Estimated
11:38PM -5.3312 37.8918 203° Southwest  Level Estimated
11:39PM -5.4440 37.8440 203° Southwest  Level Estimated
11:40PM -5.5569 37.7961 203° Southwest  Level Estimated
11:41PM -5.6698 37.7482 203° Southwest  Level Estimated
11:42PM -5.7826 37.7003 203° Southwest  Level Estimated
11:43PM -5.8955 37.6524 203° Southwest  Level Estimated
11:44PM -6.0083 37.6044 203° Southwest  Level Estimated
11:45PM -6.1212 37.5565 203° Southwest  Level Estimated
11:46PM -6.2340 37.5085 203° Southwest  Level Estimated
11:47PM -6.3468 37.4605 203° Southwest  Level Estimated
11:48PM -6.4597 37.4124 203° Southwest  Level Estimated
11:49PM -6.5725 37.3644 203° Southwest  Level Estimated
11:50PM -6.6853 37.3163 203° Southwest  Level Estimated
11:51PM -6.7982 37.2682 203° Southwest  Level Estimated
11:52PM -6.9110 37.2201 203° Southwest  Level Estimated
11:53PM -7.0238 37.1720 203° Southwest  Level Estimated
11:54PM -7.1366 37.1238 203° Southwest  Level Estimated
11:55PM -7.2494 37.0756 203° Southwest  Level Estimated
11:56PM -7.3622 37.0274 203° Southwest  Level Estimated
11:57PM -7.4749 36.9792 203° Southwest  Level Estimated
11:58PM -7.5877 36.9309 203° Southwest  Level Estimated
11:59PM -7.7005 36.8826 203° Southwest  Level Estimated
12:00AM -7.8133 36.8343 203° Southwest  Level Estimated
12:01AM -7.9261 36.7860 203° Southwest  Level Estimated
12:02AM -8.0388 36.7376 203° Southwest  Level Estimated
12:03AM -8.1516 36.6893 203° Southwest  Level Estimated
12:04AM -8.2643 36.6408 203° Southwest  Level Estimated
12:05AM -8.3771 36.5924 203° Southwest  Level Estimated
12:06AM -8.4898 36.5439 203° Southwest  Level Estimated
12:07AM -8.6025 36.4954 203° Southwest  Level Estimated
12:08AM -8.7153 36.4469 203° Southwest  Level Estimated
12:09AM -8.8280 36.3983 203° Southwest  Level Estimated
12:10AM -8.9407 36.3497 203° Southwest  Level Estimated
12:11AM -9.0534 36.3011 203° Southwest  Level Estimated
12:12AM -9.1661 36.2525 203° Southwest  Level Estimated
12:13AM -9.2788 36.2038 203° Southwest  Level Estimated
12:14AM -9.3915 36.1551 203° Southwest  Level Estimated
12:15AM -9.5042 36.1063 203° Southwest  Level Estimated
12:16AM -9.6169 36.0576 203° Southwest  Level Estimated
12:17AM -9.7295 36.0088 203° Southwest  Level Estimated
12:18AM -9.8422 35.9599 203° Southwest  Level Estimated
12:19AM -9.9548 35.9110 203° Southwest  Level Estimated
12:20AM -10.0675 35.8621 203° Southwest  Level Estimated
12:21AM -10.1801 35.8132 203° Southwest  Level Estimated
12:22AM -10.2928 35.7642 203° Southwest  Level Estimated
12:23AM -10.4054 35.7152 203° Southwest  Level Estimated
12:24AM -10.5180 35.6661 203° Southwest  Level Estimated
12:25AM -10.6306 35.6171 203° Southwest  Level Estimated
12:26AM -10.7432 35.5680 203° Southwest  Level Estimated
12:27AM -10.8558 35.5188 203° Southwest  Level Estimated
12:28AM -10.9684 35.4696 203° Southwest  Level Estimated
12:29AM -11.0810 35.4204 203° Southwest  Level Estimated
12:30AM -11.1936 35.3711 203° Southwest  Level Estimated
12:31AM -11.3061 35.3218 203° Southwest  Level Estimated
12:32AM -11.4187 35.2725 203° Southwest  Level Estimated
12:33AM -11.5312 35.2231 203° Southwest  Level Estimated
12:34AM -11.6438 35.1737 203° Southwest  Level Estimated
12:35AM -11.7563 35.1242 203° Southwest  Level Estimated
12:36AM -11.8688 35.0747 203° Southwest  Level Estimated
12:37AM -11.9813 35.0252 203° Southwest  Level Estimated
12:38AM -12.0938 34.9756 203° Southwest  Level Estimated
12:39AM -12.2063 34.9259 203° Southwest  Level Estimated
12:40AM -12.3188 34.8763 203° Southwest  Level Estimated
12:41AM -12.4313 34.8265 203° Southwest  Level Estimated
12:42AM -12.5438 34.7768 203° Southwest  Level Estimated
12:43AM -12.6562 34.7270 203° Southwest  Level Estimated
12:44AM -12.7687 34.6772 203° Southwest  Level Estimated
12:45AM -12.8811 34.6273 203° Southwest  Level Estimated
12:46AM -12.9936 34.5773 203° Southwest  Level Estimated
12:47AM -13.1060 34.5274 203° Southwest  Level Estimated
12:48AM -13.2184 34.4773 203° Southwest  Level Estimated
12:49AM -13.3308 34.4273 203° Southwest  Level Estimated
12:50AM -13.4432 34.3772 203° Southwest  Level Estimated
12:51AM -13.5555 34.3270 203° Southwest  Level Estimated
12:52AM -13.6679 34.2768 203° Southwest  Level Estimated
12:53AM -13.7803 34.2265 203° Southwest  Level Estimated
12:54AM -13.8926 34.1762 204° Southwest  Level Estimated
12:55AM -14.0050 34.1259 204° Southwest  Level Estimated
12:56AM -14.1173 34.0755 204° Southwest  Level Estimated
12:57AM -14.2296 34.0250 204° Southwest  Level Estimated
12:58AM -14.3419 33.9745 204° Southwest  Level Estimated
12:59AM -14.4542 33.9239 204° Southwest  Level Estimated
01:00AM -14.5665 33.8733 204° Southwest  Level Estimated
01:01AM -14.6788 33.8227 204° Southwest  Level Estimated
01:02AM -14.7911 33.7720 204° Southwest  Level Estimated
01:03AM -14.9033 33.7212 204° Southwest  Level Estimated
01:04AM -15.0156 33.6704 204° Southwest  Level Estimated
01:05AM -15.1278 33.6195 204° Southwest  Level Estimated
01:06AM -15.2400 33.5686 204° Southwest  Level Estimated
01:07AM -15.3522 33.5176 204° Southwest  Level Estimated
01:08AM -15.4644 33.4666 204° Southwest  Level Estimated
01:09AM -15.5766 33.4155 204° Southwest  Level Estimated
01:10AM -15.6888 33.3643 204° Southwest  Level Estimated
01:11AM -15.8010 33.3131 204° Southwest  Level Estimated
01:12AM -15.9131 33.2619 204° Southwest  Level Estimated
01:13AM -16.0252 33.2106 204° Southwest  Level Estimated
01:14AM -16.1374 33.1592 204° Southwest  Level Estimated
01:15AM -16.2495 33.1078 204° Southwest  Level Estimated
01:16AM -16.3616 33.0563 204° Southwest  Level Estimated
01:17AM -16.4737 33.0047 204° Southwest  Level Estimated
01:18AM -16.5858 32.9531 204° Southwest  Level Estimated
01:19AM -16.6978 32.9015 204° Southwest  Level Estimated
01:20AM -16.8099 32.8497 204° Southwest  Level Estimated
01:21AM -16.9219 32.7979 204° Southwest  Level Estimated
01:22AM -17.0340 32.7461 204° Southwest  Level Estimated
01:23AM -17.1460 32.6942 204° Southwest  Level Estimated
01:24AM -17.2580 32.6422 204° Southwest  Level Estimated
01:25AM -17.3699 32.5902 204° Southwest  Level Estimated
01:26AM -17.4819 32.5381 204° Southwest  Level Estimated
01:27AM -17.5939 32.4859 204° Southwest  Level Estimated
01:28AM -17.7058 32.4337 204° Southwest  Level Estimated
01:29AM -17.8178 32.3814 204° Southwest  Level Estimated
01:30AM -17.9297 32.3290 204° Southwest  Level Estimated
01:31AM -18.0416 32.2766 204° Southwest  Level Estimated
01:32AM -18.1535 32.2241 204° Southwest  Level Estimated
01:33AM -18.2653 32.1715 204° Southwest  Level Estimated
01:34AM -18.3772 32.1189 204° Southwest  Level Estimated
01:35AM -18.4890 32.0662 204° Southwest  Level Estimated
01:36AM -18.6009 32.0134 204° Southwest  Level Estimated
01:37AM -18.7127 31.9606 204° Southwest  Level Estimated
01:38AM -18.8245 31.9077 204° Southwest  Level Estimated
01:39AM -18.9363 31.8547 204° Southwest  Level Estimated
01:40AM -19.0481 31.8016 204° Southwest  Level Estimated
01:41AM -19.1598 31.7485 204° Southwest  Level Estimated
01:42AM -19.2716 31.6953 204° Southwest  Level Estimated
01:43AM -19.3833 31.6421 204° Southwest  Level Estimated
01:44AM -19.4950 31.5887 204° Southwest  Level Estimated
01:45AM -19.6067 31.5353 204° Southwest  Level Estimated
01:46AM -19.7184 31.4818 204° Southwest  Level Estimated
01:47AM -19.8300 31.4283 204° Southwest  Level Estimated
01:48AM -19.9417 31.3746 204° Southwest  Level Estimated
01:49AM -20.0533 31.3209 204° Southwest  Level Estimated
01:50AM -20.1649 31.2671 204° Southwest  Level Estimated
01:51AM -20.2765 31.2133 204° Southwest  Level Estimated
01:52AM -20.3881 31.1593 204° Southwest  Level Estimated
01:53AM -20.4997 31.1053 204° Southwest  Level Estimated
01:54AM -20.6112 31.0512 204° Southwest  Level Estimated
01:55AM -20.7228 30.9970 204° Southwest  Level Estimated
01:56AM -20.8343 30.9428 204° Southwest  Level Estimated
01:57AM -20.9458 30.8884 204° Southwest  Level Estimated
01:58AM -21.0573 30.8340 205° Southwest  Level Estimated
01:59AM -21.1687 30.7795 205° Southwest  Level Estimated
02:00AM -21.2802 30.7249 205° Southwest  Level Estimated
02:01AM -21.3916 30.6703 205° Southwest  Level Estimated
02:02AM -21.5030 30.6155 205° Southwest  Level Estimated
02:03AM -21.6144 30.5607 205° Southwest  Level Estimated
02:04AM -21.7258 30.5058 205° Southwest  Level Estimated
02:05AM -21.8372 30.4508 205° Southwest  Level Estimated
02:06AM -21.9485 30.3957 205° Southwest  Level Estimated
02:07AM -22.0598 30.3405 205° Southwest  Level Estimated
02:08AM -22.1711 30.2852 205° Southwest  Level Estimated
02:09AM -22.2824 30.2299 205° Southwest  Level Estimated
02:10AM -22.3937 30.1744 205° Southwest  Level Estimated
02:11AM -22.5049 30.1189 205° Southwest  Level Estimated
02:12AM -22.6161 30.0633 205° Southwest  Level Estimated
02:13AM -22.7273 30.0076 205° Southwest  Level Estimated
02:14AM -22.8385 29.9518 205° Southwest  Level Estimated
02:15AM -22.9497 29.8959 205° Southwest  Level Estimated
02:16AM -23.0609 29.8399 205° Southwest  Level Estimated
02:17AM -23.1720 29.7838 205° Southwest  Level Estimated
02:18AM -23.2831 29.7277 205° Southwest  Level Estimated
02:19AM -23.3942 29.6714 205° Southwest  Level Estimated
02:20AM -23.5053 29.6151 205° Southwest  Level Estimated
02:21AM -23.6163 29.5586 205° Southwest  Level Estimated
02:22AM -23.7273 29.5021 205° Southwest  Level Estimated
02:23AM -23.8383 29.4454 205° Southwest  Level Estimated
02:24AM -23.9493 29.3887 205° Southwest  Level Estimated
02:25AM -24.0603 29.3319 205° Southwest  Level Estimated
02:26AM -24.1712 29.2749 205° Southwest  Level Estimated
02:27AM -24.2822 29.2179 205° Southwest  Level Estimated
02:28AM -24.3930 29.1608 205° Southwest  Level Estimated
02:29AM -24.5039 29.1035 205° Southwest  Level Estimated
02:30AM -24.6148 29.0462 205° Southwest  Level Estimated
02:31AM -24.7256 28.9888 205° Southwest  Level Estimated
02:32AM -24.8365 28.9312 205° Southwest  Level Estimated
02:33AM -24.9472 28.8736 205° Southwest  Level Estimated
02:34AM -25.0580 28.8158 205° Southwest  Level Estimated
02:35AM -25.1688 28.7580 205° Southwest  Level Estimated
02:36AM -25.2795 28.7000 205° Southwest  Level Estimated
02:37AM -25.3902 28.6420 205° Southwest  Level Estimated
02:38AM -25.5009 28.5838 205° Southwest  Level Estimated
02:39AM -25.6115 28.5255 205° Southwest  Level Estimated
02:40AM -25.7222 28.4672 205° Southwest  Level Estimated
02:41AM -25.8328 28.4087 205° Southwest  Level Estimated
02:42AM -25.9434 28.3501 206° Southwest  Level Estimated
02:43AM -26.0539 28.2914 206° Southwest  Level Estimated
02:44AM -26.1645 28.2325 26° Northeast  Level Estimated
02:45AM -26.0539 28.2913 206° Southwest  Level Estimated
02:46AM -26.1645 28.2325 26° Northeast  Level Estimated
02:47AM -26.0539 28.2913 206° Southwest  Level Estimated
02:48AM -26.1645 28.2325 26° Northeast  Level Estimated
02:49AM -26.0539 28.2913 206° Southwest  Level Estimated
02:50AM -26.1645 28.2325 26° Northeast  Level Estimated
02:51AM -26.0539 28.2913 206° Southwest  Level Estimated
02:52AM -26.1645 28.2325 26° Northeast  Level Estimated
02:53AM -26.0539 28.2913 206° Southwest  Level Estimated
02:54AM -26.1645 28.2325 26° Northeast  Level Estimated
02:55AM -26.0539 28.2913 206° Southwest  Level Estimated
02:56AM -26.1645 28.2325 26° Northeast  Level Estimated
02:57AM -26.0539 28.2913 206° Southwest  Level Estimated
02:58AM -26.1645 28.2325 26° Northeast  Level Estimated
02:59AM -26.0539 28.2913 26° Northeast  Level Estimated